createdAt,value
2022-11-24T00:29:08.720Z,100287.75
2022-11-24T00:32:36.987Z,100281.91
2022-11-24T00:35:40.434Z,100281.19
2022-11-24T00:39:41.553Z,100283.47
2022-11-24T00:42:45.355Z,100275.41
2022-11-24T00:45:48.912Z,100271.31
2022-11-24T00:48:55.065Z,100264.16
2022-11-24T00:51:58.972Z,100265.41
2022-11-24T00:56:27.249Z,100266.81
2022-11-24T01:26:15.475Z,100266.66
2022-11-24T01:33:30.180Z,100260.59
2022-11-24T01:36:32.796Z,100261.19
2022-11-24T01:39:36.319Z,100280.66
2022-11-24T01:42:50.764Z,100271.19
2022-11-24T01:45:54.812Z,100258.00
2022-11-24T01:49:13.718Z,100279.91
2022-11-24T01:52:22.533Z,100270.00
2022-11-24T01:55:32.914Z,100270.59
2022-11-24T01:58:41.291Z,100262.25
2022-11-24T02:01:44.314Z,100257.47
2022-11-24T02:05:20.406Z,100254.19
2022-11-24T02:08:42.365Z,100260.97
2022-11-24T02:20:18.583Z,100264.78
2022-11-24T02:20:21.777Z,100262.19
2022-11-24T02:23:50.265Z,100269.00
2022-11-24T02:26:53.131Z,100263.53
2022-11-24T02:29:56.564Z,100268.66
2022-11-24T02:32:59.560Z,100267.59
2022-11-24T02:36:02.770Z,100258.19
2022-11-24T02:39:15.545Z,100261.81
2022-11-24T02:42:18.745Z,100265.31
2022-11-24T02:45:22.397Z,100259.31
2022-11-24T02:48:25.414Z,100260.31
2022-11-24T02:51:28.661Z,100263.41
2022-11-24T02:54:32.063Z,100257.19
2022-11-24T02:57:34.910Z,100260.84
2022-11-24T03:00:38.033Z,100259.19
2022-11-24T03:03:40.484Z,100254.31
2022-11-24T03:06:44.670Z,100258.84
2022-11-24T03:09:47.584Z,100252.91
2022-11-24T03:12:50.592Z,100259.81
2022-11-24T03:15:53.602Z,100246.47
2022-11-24T03:18:56.673Z,100259.75
2022-11-24T03:21:59.994Z,100257.50
2022-11-24T03:25:03.154Z,100258.63
2022-11-24T03:28:08.244Z,100257.84
2022-11-24T03:31:12.343Z,100255.03
2022-11-24T03:34:15.070Z,100253.38
2022-11-24T03:37:18.076Z,100259.72
2022-11-24T03:40:20.884Z,100255.50
2022-11-24T03:43:23.891Z,100259.22
2022-11-24T03:46:27.794Z,100261.81
2022-11-24T03:49:30.855Z,100262.94
2022-11-24T03:52:33.526Z,100261.34
2022-11-24T03:55:36.307Z,100261.31
2022-11-24T03:58:38.819Z,100262.13
2022-11-24T04:01:41.999Z,100273.75
2022-11-24T04:04:49.836Z,100278.88
2022-11-24T04:07:56.777Z,100270.41
2022-11-24T04:10:59.598Z,100272.13
2022-11-24T04:14:02.474Z,100280.84
2022-11-24T04:17:05.460Z,100277.63
2022-11-24T04:20:09.309Z,100275.88
2022-11-24T04:23:11.985Z,100273.25
2022-11-24T04:26:16.195Z,100266.97
2022-11-24T04:29:19.011Z,100272.91
2022-11-24T04:32:22.080Z,100287.84
2022-11-24T04:35:25.234Z,100288.59
2022-11-24T04:39:23.057Z,100280.75
2022-11-24T04:42:36.870Z,100286.53
2022-11-24T04:46:18.421Z,100279.50
2022-11-24T05:04:28.140Z,100292.94
2022-11-24T05:07:31.323Z,100290.50
2022-11-24T05:10:38.261Z,100300.28
2022-11-24T05:13:41.395Z,100305.56
2022-11-24T05:16:44.649Z,100296.06
2022-11-24T05:19:47.279Z,100299.53
2022-11-24T05:22:50.688Z,100289.06
2022-11-24T05:25:53.297Z,100281.28
2022-11-24T05:28:56.479Z,100303.19
2022-11-24T05:31:59.231Z,100304.84
2022-11-24T05:35:02.671Z,100305.78
2022-11-24T05:38:05.214Z,100301.31
2022-11-24T05:41:08.969Z,100319.88
2022-11-24T05:44:11.749Z,100320.63
2022-11-24T05:47:14.887Z,100314.78
2022-11-24T05:50:19.740Z,100317.34
2022-11-24T05:53:23.604Z,100318.25
2022-11-24T05:56:26.343Z,100325.09
2022-11-24T05:59:29.479Z,100331.94
2022-11-24T06:02:32.636Z,100346.97
2022-11-24T06:05:36.484Z,100343.41
2022-11-24T06:09:13.627Z,100334.59
2022-11-24T06:12:48.490Z,100337.41
2022-11-24T06:22:19.940Z,100348.78
2022-11-24T06:38:04.632Z,100349.13
2022-11-24T06:41:19.436Z,100353.50
2022-11-24T06:44:40.208Z,100352.34
2022-11-24T06:47:43.074Z,100358.72
2022-11-24T06:50:45.524Z,100349.25
2022-11-24T06:53:48.518Z,100355.72
2022-11-24T06:56:56.661Z,100353.38
2022-11-24T06:59:59.604Z,100360.44
2022-11-24T07:03:02.313Z,100356.84
2022-11-24T07:06:05.780Z,100367.94
2022-11-24T07:09:10.200Z,100382.91
2022-11-24T07:12:13.352Z,100372.44
2022-11-24T07:15:16.824Z,100374.41
2022-11-24T07:18:20.154Z,100374.31
2022-11-24T08:04:12.240Z,100395.88
2022-11-24T08:12:29.797Z,100388.09
2022-11-24T08:15:35.085Z,100387.22
2022-11-24T08:18:39.081Z,100390.84
2022-11-24T08:21:44.257Z,100383.59
2022-11-24T09:32:12.501Z,100428.81
2022-11-24T09:35:15.534Z,100427.28
2022-11-24T11:06:38.969Z,100443.41
2022-11-24T12:39:08.421Z,100447.13
2022-11-24T12:42:59.998Z,100450.84
2022-11-24T17:01:46.856Z,100584.31
2022-11-24T17:04:52.254Z,100588.72
2022-11-24T17:07:54.694Z,100601.78
2022-11-24T17:10:56.898Z,100610.44
2022-11-24T17:13:59.373Z,100609.81
2022-11-24T17:17:01.708Z,100615.94
2022-11-24T17:20:05.115Z,100611.56
2022-11-24T17:23:07.356Z,100615.91
2022-11-24T17:26:17.438Z,100611.44
2022-11-24T17:29:20.006Z,100605.28
2022-11-24T17:32:22.528Z,100617.53
2022-11-24T17:35:24.587Z,100622.66
2022-11-24T17:38:28.302Z,100635.63
2022-11-24T17:41:31.023Z,100629.50
2022-11-24T17:44:33.837Z,100638.94
2022-11-24T17:47:36.166Z,100644.06
2022-11-24T17:50:38.487Z,100644.91
2022-11-24T17:53:42.582Z,100646.59
2022-11-24T17:56:45.965Z,100654.59
2022-11-24T17:59:48.130Z,100653.66
2022-11-24T18:02:50.610Z,100647.34
2022-11-24T18:05:53.007Z,100659.22
2022-11-24T18:08:58.763Z,100648.63
2022-11-24T18:12:01.031Z,100658.31
2022-11-24T18:15:03.774Z,100668.69
2022-11-24T18:18:05.910Z,100660.66
2022-11-24T18:21:15.103Z,100659.94
2022-11-24T18:24:22.548Z,100660.91
2022-11-24T18:27:26.467Z,100661.00
2022-11-24T18:30:28.583Z,100659.81
2022-11-24T18:33:31.141Z,100661.66
2022-11-24T18:36:34.564Z,100654.69
2022-11-24T18:39:37.179Z,100662.56
2022-11-24T18:42:39.831Z,100656.44
2022-11-24T18:45:42.428Z,100654.69
2022-11-24T18:48:45.383Z,100664.25
2022-11-24T18:51:47.913Z,100656.31
2022-11-24T18:54:50.169Z,100659.78
2022-11-24T18:57:52.435Z,100659.91
2022-11-24T19:00:55.133Z,100661.56
2022-11-24T19:03:59.480Z,100652.81
2022-11-24T19:07:01.609Z,100666.88
2022-11-24T19:10:04.330Z,100665.00
2022-11-24T19:13:06.436Z,100663.44
2022-11-24T19:16:12.773Z,100656.38
2022-11-24T19:19:16.495Z,100652.81
2022-11-24T19:22:19.008Z,100666.94
2022-11-24T19:25:21.556Z,100674.16
2022-11-24T19:28:24.566Z,100677.53
2022-11-24T19:31:26.940Z,100674.72
2022-11-24T19:34:29.554Z,100674.81
2022-11-24T19:37:31.712Z,100679.34
2022-11-24T19:40:34.095Z,100687.09
2022-11-24T19:43:38.071Z,100682.50
2022-11-24T19:46:41.219Z,100696.75
2022-11-24T19:49:43.426Z,100687.00
2022-11-24T19:52:47.846Z,100682.63
2022-11-24T19:55:50.064Z,100692.22
2022-11-24T19:58:53.970Z,100688.94
2022-11-24T20:01:57.901Z,100695.19
2022-11-24T20:05:00.766Z,100703.16
2022-11-24T20:08:09.612Z,100698.13
2022-11-24T20:11:17.419Z,100702.97
2022-11-24T20:14:20.643Z,100692.72
2022-11-24T20:17:25.946Z,100699.75
2022-11-24T20:20:28.266Z,100714.97
2022-11-24T20:23:30.811Z,100708.97
2022-11-24T20:26:36.603Z,100709.84
2022-11-24T20:29:45.216Z,100717.94
2022-11-24T20:32:48.956Z,100719.84
2022-11-24T20:35:51.447Z,100713.59
2022-11-24T20:38:54.312Z,100710.03
2022-11-24T20:41:56.914Z,100714.41
2022-11-24T20:45:01.340Z,100710.06
2022-11-24T20:48:05.731Z,100717.75
2022-11-24T20:51:14.547Z,100716.63
2022-11-24T20:54:24.511Z,100729.00
2022-11-24T20:57:26.661Z,100724.38
2022-11-24T21:00:29.275Z,100730.91
2022-11-24T21:03:31.726Z,100732.00
2022-11-24T21:06:35.605Z,100736.47
2022-11-24T21:09:38.733Z,100737.41
2022-11-24T21:12:40.997Z,100738.28
2022-11-24T21:15:43.442Z,100722.72
2022-11-24T21:18:47.804Z,100747.44
2022-11-24T21:21:50.402Z,100741.41
2022-11-24T21:24:52.903Z,100748.47
2022-11-24T21:27:55.098Z,100755.38
2022-11-24T21:31:05.805Z,100749.13
2022-11-24T21:34:09.054Z,100763.16
2022-11-24T21:37:11.631Z,100754.50
2022-11-24T21:40:15.206Z,100763.84
2022-11-24T21:43:17.808Z,100761.94
2022-11-24T21:46:20.070Z,100754.66
2022-11-24T21:49:22.710Z,100766.63
2022-11-24T21:52:25.110Z,100768.69
2022-11-24T21:55:27.747Z,100764.59
2022-11-24T21:58:30.113Z,100760.13
2022-11-24T22:01:32.937Z,100772.69
2022-11-24T22:04:35.509Z,100772.81
2022-11-24T22:07:38.083Z,100770.09
2022-11-24T22:10:40.207Z,100773.50
2022-11-24T22:13:43.667Z,100778.94
2022-11-24T22:16:46.260Z,100787.75
2022-11-24T22:19:48.616Z,100779.84
2022-11-24T22:22:50.586Z,100778.09
2022-11-24T22:25:52.862Z,100781.50
2022-11-24T22:28:55.863Z,100775.50
2022-11-24T22:31:58.506Z,100774.72
2022-11-24T22:35:00.648Z,100780.91
2022-11-24T22:38:03.083Z,100774.00
2022-11-24T22:41:16.533Z,100772.81
2022-11-24T22:44:18.833Z,100772.75
2022-11-24T22:47:20.929Z,100776.97
2022-11-24T22:50:23.293Z,100770.81
2022-11-24T22:53:25.346Z,100776.13
2022-11-24T22:56:28.258Z,100780.44
2022-11-24T22:59:30.390Z,100775.66
2022-11-24T23:02:32.807Z,100773.88
2022-11-24T23:05:35.123Z,100777.44
2022-11-24T23:08:37.616Z,100777.81
2022-11-24T23:11:40.902Z,100781.50
2022-11-24T23:14:43.234Z,100781.28
2022-11-24T23:17:45.350Z,100785.53
2022-11-24T23:20:47.975Z,100786.50
2022-11-24T23:23:50.886Z,100787.88
2022-11-24T23:26:53.388Z,100794.06
2022-11-24T23:29:55.511Z,100794.25
2022-11-24T23:32:57.850Z,100792.81
2022-11-24T23:36:02.194Z,100800.63
2022-11-24T23:39:10.848Z,100802.22
2022-11-24T23:42:13.365Z,100799.59
2022-11-24T23:45:15.690Z,100788.44
2022-11-24T23:48:18.000Z,100785.84
2022-11-24T23:51:23.451Z,100784.81
2022-11-24T23:57:45.221Z,100792.75
